Terminal Aerodrome Forecast
Issued by NWS

Home | Current Version | Previous Version | Text Only | Print | Product List | Glossary On
Versions: 1 2 3 4 5 6 7 8 9 10 11 12 13 14 15 16 17 18 19
334
FTUS43 KDVN 102328
TAFBRL
TAF
KBRL 102328Z 1100/1124 31005KT P6SM SKC
     FM110900 23004KT P6SM SCT120
     FM111900 29015G22KT P6SM BKN080
     FM112300 31014G24KT P6SM SCT030 OVC080=

USA.gov is the U.S. government's official web portal to all federal, state and local government web resources and services.